• Join FlightAware (Why Join?)
  • Login
  • US Flag 
08:03PM EDT


 

Airport Tracker/Info


-or-


 

Live Flight TrackerFlight Track Log ✈ N789EX ✈ 12-Apr-2014 ✈ KBFI - KBFI

Flight Track Log - Related Links

Times and Time Zones

All times are in EDT time to prevent confusion due to time zone crossing. See the N789EX flight status page for this flight to view local times or setup timezone preferences in your user account.

Time Position Orientation Groundspeed Altitude Reporting Facility
EDT Latitude Longitude Course Direction KTS MPH feet Rate Location/Type
01:47PM 47.5507 -122.3220 325° Northwest 182 209 1,600  Level FlightAware ADS-B
01:48PM 47.5621 -122.3340 324° Northwest 215 247 1,700 720 Climbing FlightAware ADS-B
01:48PM 47.5701 -122.3430 324° Northwest 233 268 1,900 720 Climbing FlightAware ADS-B
01:48PM 47.5836 -122.3570 324° Northwest 243 280 2,000 720 Climbing FlightAware ADS-B
01:48PM 47.5974 -122.3720 322° Northwest 235 270 2,300 1,140 Climbing FlightAware ADS-B
01:48PM 47.6013 -122.3770 315° West 239 275 2,400 1,200 Climbing FlightAware ADS-B
01:48PM 47.6047 -122.3840 307° West 244 281 2,500 1,500 Climbing FlightAware ADS-B
01:49PM 47.6069 -122.3890 301° West 247 284 2,600 2,520 Climbing FlightAware ADS-B
01:49PM 47.6088 -122.3940 298° West 249 287 2,800 4,080 Climbing FlightAware ADS-B
01:49PM 47.6150 -122.4130 294° West 249 287 3,700 3,960 Climbing FlightAware ADS-B
01:49PM 47.6206 -122.4320 295° West 255 293 4,400 3,960 Climbing FlightAware ADS-B
01:49PM 47.6224 -122.4370 299° West 253 291 4,700 4,260 Climbing FlightAware ADS-B
01:49PM 47.6246 -122.4420 304° West 252 290 4,900 3,960 Climbing FlightAware ADS-B
01:49PM 47.6287 -122.4490 310° West 251 289 5,300 4,200 Climbing FlightAware ADS-B
01:49PM 47.6329 -122.4550 319° Northwest 251 289 5,600 3,240 Climbing FlightAware ADS-B
01:49PM 47.6383 -122.4600 329° Northwest 253 291 5,900 2,640 Climbing FlightAware ADS-B
01:49PM 47.6419 -122.4630 336° Northwest 256 295 6,000 2,520 Climbing FlightAware ADS-B
01:49PM 47.6457 -122.4650 340° North 258 297 6,200 2,400 Climbing FlightAware ADS-B
01:50PM 47.6525 -122.4680 346° North 263 303 6,400 2,640 Climbing FlightAware ADS-B
01:50PM 47.6570 -122.4690 350° North 264 304 6,600 4,200 Climbing FlightAware ADS-B
01:50PM 47.6655 -122.4710 353° North 264 304 7,100 3,600 Climbing FlightAware ADS-B
01:50PM 47.6742 -122.4723 354° North 266 306 7,500 3,660 Climbing FlightAware ADS-B (CYVR)
01:50PM 47.6872 -122.4740 354° North 267 307 8,200 3,960 Climbing FlightAware ADS-B
01:50PM 47.6939 -122.4750 359° North 268 308 8,500 3,720 Climbing FlightAware ADS-B
01:50PM 47.6922 -122.4748 North 268 308 8,700 3,420 Climbing FlightAware ADS-B (CYVR)
01:50PM 47.7015 -122.4740 North 268 308 8,900 3,600 Climbing FlightAware ADS-B
01:50PM 47.7091 -122.4720 12° North 268 308 9,300 4,260 Climbing FlightAware ADS-B
01:50PM 47.7103 -122.4715 14° North 267 307 9,400 4,260 Climbing FlightAware ADS-B (CYVR)
01:50PM 47.7176 -122.4680 16° North 265 305 9,800 3,660 Climbing FlightAware ADS-B
01:51PM 47.7321 -122.4610 21° North 272 313 10,500 2,520 Climbing FlightAware ADS-B
01:51PM 47.7491 -122.4510 23° Northeast 293 337 10,900 1,560 Climbing FlightAware ADS-B
01:51PM 47.7553 -122.4460 28° Northeast 301 346 11,000 1,500 Climbing FlightAware ADS-B
01:51PM 47.7474 -122.4517 32° Northeast 307 353 11,100 1,500 Climbing FlightAware ADS-B (CYVR)
01:51PM 47.7592 -122.4430 32° Northeast 307 353 11,100 960 Level FlightAware ADS-B
01:51PM 47.7655 -122.4350 41° Northeast 318 366 11,200 1,200 Climbing FlightAware ADS-B
01:51PM 47.7702 -122.4275 51° Northeast 330 380 11,300 960 Climbing FlightAware ADS-B (CYVR)
01:51PM 47.7713 -122.4250 51° Northeast 330 380 11,300 1,200 Level FlightAware ADS-B
01:51PM 47.7741 -122.4190 59° Northeast 338 389 11,400 2,220 Climbing FlightAware ADS-B
01:51PM 47.7771 -122.4100 66° East 345 397 11,600 2,520 Climbing FlightAware ADS-B
01:51PM 47.7787 -122.4030 71° East 349 402 11,700 2,520 Climbing FlightAware ADS-B
01:51PM 47.7803 -122.3930 78° East 356 410 11,900 3,000 Climbing FlightAware ADS-B
01:52PM 47.7800 -122.3951 86° East 361 415 12,100 3,000 Climbing FlightAware ADS-B (CYVR)
01:52PM 47.7811 -122.3690 92° East 365 420 12,400 3,360 Climbing FlightAware ADS-B
01:52PM 47.7797 -122.3420 96° East 369 425 13,000 3,180 Climbing FlightAware ADS-B
01:52PM 47.7792 -122.3367 98° East 370 426 13,100 3,000 Climbing FlightAware ADS-B (CYVR)
01:52PM 47.7783 -122.3290 100° East 373 429 13,300 3,960 Climbing FlightAware ADS-B
01:52PM 47.7768 -122.3200 105° East 377 434 13,500 3,420 Climbing FlightAware ADS-B
01:52PM 47.7745 -122.3090 110° East 381 438 13,700 2,220 Climbing FlightAware ADS-B
01:52PM 47.7717 -122.3000 115° Southeast 385 443 13,800 1,980 Climbing FlightAware ADS-B
01:52PM 47.7683 -122.2900 120° Southeast 390 449 14,000 2,520 Climbing FlightAware ADS-B
01:52PM 47.7662 -122.2852 121° Southeast 390 449 14,100 3,600 Climbing FlightAware ADS-B (CYVR)
01:52PM 47.7631 -122.2790 125° Southeast 394 453 14,300 3,180 Climbing FlightAware ADS-B
01:52PM 47.7495 -122.2530 128° Southeast 399 459 14,900 3,000 Climbing FlightAware ADS-B
01:53PM 47.7420 -122.2380 125° Southeast 400 460 15,200 2,700 Climbing FlightAware ADS-B
01:53PM 47.7374 -122.2270 120° Southeast 400 460 15,400 1,980 Climbing FlightAware ADS-B
01:53PM 47.7363 -122.2237 116° Southeast 399 459 15,500 2,400 Climbing FlightAware ADS-B (CYVR)
01:53PM 47.7338 -122.2160 114° Southeast 398 458 15,600 3,600 Climbing FlightAware ADS-B
01:53PM 47.7313 -122.2060 108° East 397 457 15,800 2,220 Climbing FlightAware ADS-B
01:53PM 47.7295 -122.1956 103° East 396 456 15,900 2,520 Climbing FlightAware ADS-B (CYVR)
01:53PM 47.7283 -122.1860 101° East 396 456 16,100 3,060 Climbing FlightAware ADS-B
01:53PM 47.7220 -122.1115 97° East 400 460 17,500 3,000 Climbing FlightAware ADS-B (CYVR)
01:53PM 47.7214 -122.1040 97° East 400 460 17,600 2,580 Climbing FlightAware ADS-B
01:54PM 47.7162 -122.0385 97° East 409 471 18,800 2,580 Climbing FlightAware ADS-B (CYVR)
01:54PM 47.7148 -122.0210 97° East 410 472 18,900 2,580 Climbing FlightAware ADS-B
01:54PM 47.7076 -121.9370 98° East 419 482 20,200 2,400 Climbing FlightAware ADS-B
01:55PM 47.7065 -121.9237 98° East 421 484 20,400 2,280 Climbing FlightAware ADS-B (CYVR)
01:55PM 47.6994 -121.8500 99° East 428 493 21,400 2,460 Climbing FlightAware ADS-B
01:55PM 47.6973 -121.8303 99° East 431 496 21,700 1,980 Climbing FlightAware ADS-B (CYVR)
01:55PM 47.6897 -121.7610 99° East 442 509 22,400 1,800 Climbing FlightAware ADS-B
01:56PM 47.6879 -121.7432 99° East 444 511 22,600 1,200 Climbing FlightAware ADS-B (CYVR)
01:56PM 47.6796 -121.6690 99° East 462 532 23,000 780 Climbing FlightAware ADS-B
01:56PM 47.6776 -121.6509 99° East 471 542 23,000  Level FlightAware ADS-B (CYVR)
01:56PM 47.6691 -121.5710 99° East 495 570 23,000  Level FlightAware ADS-B
01:57PM 47.6644 -121.5244 99° East 508 585 23,000  Level FlightAware ADS-B (CYVR)
01:57PM 47.6586 -121.4660 98° East 513 590 23,000  Level FlightAware ADS-B
01:57PM 47.6527 -121.4130 101° East 517 595 23,000  Level FlightAware ADS-B
01:58PM 47.6439 -121.3447 101° East 520 598 23,000  Level FlightAware ADS-B (CYVR)
01:58PM 47.6388 -121.3060 101° East 519 597 23,000  Level FlightAware ADS-B
01:58PM 47.6261 -121.2117 101° East 514 592 23,000  Level FlightAware ADS-B (CYVR)
01:58PM 47.6247 -121.2010 101° East 513 590 23,000 -360 Level FlightAware ADS-B
01:59PM 47.6106 -121.0940 101° East 520 598 22,800 -600 Descending FlightAware ADS-B
01:59PM 47.6098 -121.0881 101° East 520 598 22,700 -420 Descending FlightAware ADS-B (CYWH)
01:59PM 47.5960 -120.9900 102° East 509 586 22,600 -300 Descending FlightAware ADS-B
01:59PM 47.5907 -120.9509 101° East 511 588 22,500 -420 Descending FlightAware ADS-B (CYWH)
02:00PM 47.5822 -120.8860 101° East 514 592 22,400  Descending FlightAware ADS-B
02:00PM 47.5696 -120.7820 100° East 511 588 22,500 180 Climbing FlightAware ADS-B
02:01PM 47.5575 -120.6780 100° East 511 588 22,600 60 Climbing FlightAware ADS-B
02:01PM 47.5457 -120.5730 99° East 511 588 22,600 -600 Level FlightAware ADS-B
02:02PM 47.5345 -120.4680 100° East 521 600 22,000 -540 Descending FlightAware ADS-B
02:02PM 47.5170 -120.3550 104° East 519 597 22,100 480 Climbing FlightAware ADS-B
02:03PM 47.5007 -120.2640 106° East 511 588 22,500 540 Climbing FlightAware ADS-B
02:03PM 47.4920 -120.2170 104° East 511 588 22,500 540 Level FlightAware ADS-B
02:03PM 47.4844 -120.1530 97° East 513 590 22,800 420 Climbing FlightAware ADS-B
02:04PM 47.4764 -120.0330 96° East 514 592 22,900 -300 Climbing FlightAware ADS-B
02:04PM 47.4704 -119.9250 94° East 522 601 22,500 -120 Descending FlightAware ADS-B
02:06PM 47.4554 -119.6450 95° East 513 590 22,700 -120 Climbing FlightAware ADS-B
02:07PM 47.4347 -119.4728 95° East 512 589 22,300 -1,080 Descending Seattle Center
02:08PM 47.4019 -119.2808 104° East 493 567 20,600 -2,580 Descending Seattle Center
02:09PM 47.4133 -119.1033 85° East 411 473 17,100 -2,520 Descending Seattle Center
02:10PM 47.3947 -118.9689 102° East 346 398 15,500 -780 Descending Seattle Center
02:11PM 47.3197 -118.8536 134° Southeast 370 426 15,600 -1,560 Climbing Seattle Center
02:12PM 47.2458 -118.7611 140° Southeast 349 402 12,400 -1,920 Descending Seattle Center
02:13PM 47.1892 -118.8264 218° Southwest 298 343 11,800 420 Descending Seattle Center
02:14PM 47.2439 -118.8881 323° Northwest 258 297 13,300 -120 Climbing Seattle Center
02:15PM 47.3111 -118.9144 345° North 252 290 11,600 120 Descending Seattle Center
02:16PM 47.3775 -118.8747 22° Northeast 235 270 13,600 1,020 Climbing Seattle Center
02:17PM 47.4433 -118.8111 33° Northeast 298 343 13,800 -120 Climbing Seattle Center
02:18PM 47.4614 -118.6864 78° East 315 362 13,400 -1,140 Descending Seattle Center
02:19PM 47.4606 -118.5714 91° East 284 327 11,600 -1,080 Descending Seattle Center
02:20PM 47.4014 -118.5597 172° South 221 254 11,300 -240 Descending Seattle Center
02:21PM 47.3708 -118.6283 237° Southwest 204 235 11,200 -60 Descending Seattle Center
02:22PM 47.3669 -118.7056 266° West 191 220 11,200  Level Seattle Center
02:23PM 47.3878 -118.7686 296° West 190 219 11,200 120 Level Seattle Center
02:24PM 47.4261 -118.8203 318° Northwest 194 223 11,500 -180 Climbing Seattle Center
02:25PM 47.4622 -118.9014 303° West 244 281 10,900 -1,020 Descending Seattle Center
02:26PM 47.5042 -118.9922 304° West 266 306 9,500 -720 Descending Seattle Center
02:27PM 47.4786 -119.0867 248° West 281 323 9,500  Level Seattle Center
02:28PM 47.3908 -119.0881 181° South 293 337 9,500  Level Seattle Center
02:29PM 47.3097 -119.0794 176° South 293 337 9,500  Level Seattle Center
02:30PM 47.2283 -119.0644 173° South 294 338 9,500  Level Seattle Center
02:31PM 47.2133 -118.9625 102° East 283 326 9,500  Level Seattle Center
02:32PM 47.2722 -118.8789 44° Northeast 276 318 9,500  Level Seattle Center
02:33PM 47.3394 -118.8311 26° Northeast 274 315 9,500  Level Seattle Center
02:34PM 47.4125 -118.8178 North 266 306 9,500  Level Seattle Center
02:35PM 47.4811 -118.8558 339° North 273 314 9,500  Level Seattle Center
02:36PM 47.4614 -118.9664 255° West 285 328 9,500  Level Seattle Center
02:37PM 47.3831 -118.9931 193° South 296 341 9,500  Level Seattle Center
02:38PM 47.3058 -118.9750 171° South 296 341 9,500  Level Seattle Center
02:39PM 47.2475 -118.8925 136° Southeast 294 338 9,500  Level Seattle Center
02:40PM 47.1903 -118.8053 134° Southeast 294 338 9,500  Level Seattle Center
02:41PM 47.1328 -118.7197 135° Southeast 294 338 9,500 -600 Level Seattle Center
02:42PM 47.0747 -118.6231 131° Southeast 293 337 8,400 -1,020 Descending Seattle Center
02:43PM 47.0214 -118.5383 133° Southeast 284 327 7,500 240 Descending Seattle Center
02:44PM 46.9667 -118.4567 134° Southeast 282 325 9,000 1,020 Climbing Seattle Center
02:45PM 46.8936 -118.4567 180° South 301 346 9,600 240 Climbing Seattle Center
02:46PM 46.8292 -118.5292 218° Southwest 295 339 9,600  Level Seattle Center
02:47PM 46.7528 -118.5836 206° Southwest 292 336 9,600  Level Seattle Center
02:48PM 46.6750 -118.6233 199° South 296 341 9,600  Level Seattle Center
02:49PM 46.5928 -118.6686 201° Southwest 296 341 9,600  Level Seattle Center
02:50PM 46.5161 -118.7103 201° Southwest 295 339 9,600  Level Seattle Center
02:51PM 46.4483 -118.6775 162° South 296 341 9,600 -60 Level Seattle Center
02:52PM 46.4792 -118.5872 64° Northeast 274 315 9,500  Descending Seattle Center
02:54PM 46.5531 -118.5656 11° North 272 313 9,600  Climbing Seattle Center
02:55PM 46.6244 -118.5131 27° Northeast 268 308 9,600  Level Seattle Center
02:56PM 46.6853 -118.4500 35° Northeast 270 311 9,600  Level Seattle Center
02:57PM 46.7447 -118.3850 37° Northeast 268 308 9,600  Level Seattle Center
02:58PM 46.8086 -118.3172 36° Northeast 270 311 9,600  Level Seattle Center
02:59PM 46.8700 -118.2544 35° Northeast 271 312 9,600  Level Seattle Center
03:00PM 46.9181 -118.3197 317° Northwest 273 314 9,600  Level Seattle Center
03:01PM 46.8892 -118.4378 250° West 288 331 9,600  Level Seattle Center
03:02PM 46.8461 -118.5333 237° Southwest 287 330 9,600  Level Seattle Center
03:03PM 46.7867 -118.6175 224° Southwest 295 339 9,600  Level Seattle Center
03:04PM 46.7272 -118.7025 224° Southwest 296 341 9,600  Level Seattle Center
03:05PM 46.6694 -118.7856 225° Southwest 294 338 9,600  Level Seattle Center
03:06PM 46.6069 -118.8761 225° Southwest 295 339 9,600  Level Seattle Center
03:07PM 46.5494 -118.9614 226° Southwest 295 339 9,600  Level Seattle Center
03:08PM 46.4922 -119.0439 225° Southwest 294 338 9,600  Level Seattle Center
03:09PM 46.4281 -119.1092 215° Southwest 285 328 9,600  Level Seattle Center
03:10PM 46.3864 -119.0239 125° Southeast 276 318 9,600  Level Seattle Center
03:11PM 46.4503 -119.0072 10° North 278 320 9,600  Level Seattle Center
03:12PM 46.5122 -119.0644 328° Northwest 271 312 9,600  Level Seattle Center
03:13PM 46.5872 -119.0664 359° North 276 318 9,600  Level Seattle Center
03:14PM 46.6681 -119.0658 360° North 268 308 9,600  Level Seattle Center
03:15PM 46.7422 -119.0650 360° North 267 307 9,600  Level Seattle Center
03:16PM 46.8194 -119.0644 360° North 270 311 9,600  Level Seattle Center
03:17PM 46.8947 -119.0633 North 270 311 9,600  Level Seattle Center
03:18PM 46.9689 -119.0464 North 272 313 9,600 -60 Level Seattle Center
03:19PM 47.0486 -119.0208 12° North 272 313 9,500 -120 Descending Seattle Center
03:20PM 47.1194 -119.0561 341° North 276 318 9,400  Descending Seattle Center
03:21PM 47.1919 -119.0767 349° North 272 313 9,500  Climbing Seattle Center
03:22PM 47.2628 -119.1075 344° North 269 310 9,500  Level Seattle Center
03:23PM 47.3097 -119.2036 306° West 272 313 9,500  Level Seattle Center
03:24PM 47.3628 -119.2761 317° Northwest 274 315 9,600  Climbing Seattle Center
03:25PM 47.4392 -119.2769 360° North 275 316 9,600  Level Seattle Center
03:26PM 47.5158 -119.2772 360° North 275 316 9,600  Level Seattle Center
03:27PM 47.6008 -119.2764 360° North 282 325 9,600  Level Seattle Center
03:28PM 47.6764 -119.2758 360° North 272 313 9,600  Level Seattle Center
03:29PM 47.7447 -119.2764 360° North 251 289 9,600  Level Seattle Center
03:30PM 47.8092 -119.2933 350° North 244 281 9,600  Level Seattle Center
03:31PM 47.7822 -119.3867 247° West 273 314 9,600  Level Seattle Center
03:32PM 47.7072 -119.4022 188° South 279 321 9,700 240 Climbing Seattle Center
03:33PM 47.6383 -119.4547 207° Southwest 278 320 10,200 480 Climbing Seattle Center
03:34PM 47.5708 -119.5011 205° Southwest 274 315 10,700 480 Climbing Seattle Center
03:35PM 47.5044 -119.5506 207° Southwest 271 312 11,200 780 Climbing Seattle Center
03:36PM 47.4322 -119.6042 207° Southwest 271 312 12,300 840 Climbing Seattle Center
03:37PM 47.3600 -119.6525 204° Southwest 285 328 13,000 600 Climbing Seattle Center
03:38PM 47.2819 -119.6833 195° South 290 334 13,600 240 Climbing Seattle Center
03:39PM 47.2058 -119.6392 158° South 304 350 13,600  Level Seattle Center
03:40PM 47.1719 -119.5181 112° Southeast 301 346 13,600  Level Seattle Center
03:41PM 47.1500 -119.4025 106° East 300 345 13,600  Level Seattle Center
03:42PM 47.1281 -119.2889 106° East 297 342 13,600 -120 Level Seattle Center
03:43PM 47.0964 -119.1686 111° Southeast 299 344 13,400  Descending Seattle Center
03:44PM 47.0228 -119.1247 158° South 298 343 13,600 60 Climbing Seattle Center
03:45PM 46.9442 -119.1572 196° South 295 339 13,600  Level Seattle Center
03:46PM 46.8656 -119.1903 196° South 295 339 13,600  Level Seattle Center
03:47PM 46.7864 -119.2225 196° South 295 339 13,600  Level Seattle Center
03:48PM 46.7067 -119.2550 196° South 296 341 13,600  Level Seattle Center
03:49PM 46.6256 -119.3006 201° Southwest 296 341 13,600 120 Level Seattle Center
03:50PM 46.6039 -119.3953 252° West 257 296 13,900 420 Climbing Seattle Center
03:52PM 46.6522 -119.4631 316° Northwest 252 290 14,500 300 Climbing Seattle Center
03:53PM 46.7228 -119.4333 16° North 267 307 14,600  Climbing Seattle Center
03:54PM 46.7914 -119.3864 25° Northeast 269 310 14,600  Level Seattle Center
03:55PM 46.8625 -119.3542 17° North 268 308 14,600  Level Seattle Center
03:56PM 46.9389 -119.3228 16° North 266 306 14,600  Level Seattle Center
03:57PM 47.0100 -119.2931 16° North 266 306 14,600 -60 Level Seattle Center
03:58PM 47.0792 -119.2631 16° North 263 303 14,500 -60 Descending Seattle Center
03:59PM 47.1489 -119.2342 16° North 262 302 14,500  Level Seattle Center
04:00PM 47.2225 -119.2036 16° North 261 300 14,500  Level Seattle Center
04:01PM 47.2917 -119.1731 17° North 261 300 14,500  Level Seattle Center
04:02PM 47.3606 -119.1436 16° North 261 300 14,500  Level Seattle Center
04:03PM 47.4289 -119.1497 357° North 251 289 14,500 -780 Level Seattle Center
04:04PM 47.4528 -119.2536 289° West 264 304 13,000 -1,560 Descending Seattle Center
04:05PM 47.4081 -119.4006 246° West 291 335 10,700 -1,440 Descending Seattle Center
04:06PM 47.3628 -119.4961 235° Southwest 290 334 9,500 -1,200 Descending Seattle Center
04:07PM 47.2897 -119.5522 208° Southwest 281 323 8,400 -1,020 Descending Seattle Center
04:08PM 47.2206 -119.5864 199° South 265 305 7,500 -480 Descending Seattle Center
04:09PM 47.1506 -119.6225 199° South 265 305 7,500 1,380 Level Seattle Center
04:10PM 47.0814 -119.6558 198° South 262 302 10,400 1,260 Climbing Seattle Center
04:16PM 47.2450 -120.1360 326° Northwest 392 451 16,400 900 Climbing FlightAware ADS-B
04:17PM 47.2928 -120.1830 326° Northwest 393 452 16,400  Level FlightAware ADS-B
04:17PM 47.3419 -120.2320 326° Northwest 392 451 16,400  Level FlightAware ADS-B
04:18PM 47.3877 -120.2780 326° Northwest 391 450 16,400 60 Level FlightAware ADS-B
04:18PM 47.4327 -120.3230 325° Northwest 392 451 16,500  Climbing FlightAware ADS-B
04:19PM 47.4793 -120.3700 325° Northwest 392 451 16,400 -120 Descending FlightAware ADS-B
04:19PM 47.5283 -120.4200 326° Northwest 391 450 16,400  Level FlightAware ADS-B
04:20PM 47.5820 -120.4740 325° Northwest 390 449 16,400 120 Level FlightAware ADS-B
04:20PM 47.5969 -120.4900 322° Northwest 391 450 16,500  Climbing FlightAware ADS-B
04:20PM 47.6198 -120.5210 316° Northwest 394 453 16,400 -120 Descending FlightAware ADS-B
04:21PM 47.6656 -120.5900 314° West 394 453 16,400 60 Level FlightAware ADS-B
04:21PM 47.7039 -120.6480 315° West 394 453 16,500  Climbing FlightAware ADS-B
04:22PM 47.7425 -120.7060 315° West 392 451 16,400 -120 Descending FlightAware ADS-B
04:22PM 47.7812 -120.7640 314° West 391 450 16,400  Level FlightAware ADS-B
04:22PM 47.7817 -120.7646 315° West 391 450 16,400  Level FlightAware ADS-B (CYVR)
04:23PM 47.8071 -120.8030 313° West 392 451 16,400 180 Level FlightAware ADS-B
04:23PM 47.8199 -120.8260 307° West 395 455 16,500  Climbing FlightAware ADS-B
04:23PM 47.8122 -120.8120 307° West 395 455 16,400 -240 Descending FlightAware ADS-B (CYVR)
04:23PM 47.8509 -120.8940 303° West 398 458 16,400  Level FlightAware ADS-B
04:24PM 47.8818 -120.9630 304° West 397 457 16,400  Level FlightAware ADS-B
04:24PM 47.8887 -120.9785 304° West 397 457 16,400  Level FlightAware ADS-B (CYVR)
04:24PM 47.9065 -121.0190 303° West 397 457 16,400  Level FlightAware ADS-B
04:25PM 47.9240 -121.0630 298° West 399 459 16,400  Level FlightAware ADS-B
04:25PM 47.9344 -121.0946 294° West 401 461 16,400  Level FlightAware ADS-B (CYWH)
04:25PM 47.9374 -121.1050 293° West 401 461 16,400  Level FlightAware ADS-B
04:25PM 47.9557 -121.1840 288° West 404 465 16,400  Level FlightAware ADS-B
04:25PM 47.9544 -121.1776 285° West 404 465 16,400 180 Level FlightAware ADS-B (CYWH)
04:26PM 47.9692 -121.2650 282° West 404 465 16,500  Climbing FlightAware ADS-B
04:26PM 47.9722 -121.2858 282° West 404 465 16,400 -240 Descending FlightAware ADS-B (CYWH)
04:26PM 47.9803 -121.3420 281° West 405 466 16,400 120 Level FlightAware ADS-B
04:27PM 47.9855 -121.3925 277° West 410 472 16,500  Climbing FlightAware ADS-B (CYWH)
04:27PM 47.9892 -121.4360 277° West 411 473 16,400 -420 Descending FlightAware ADS-B
04:27PM 47.9924 -121.4768 277° West 411 473 16,300 -420 Descending FlightAware ADS-B (CYWH)
04:27PM 47.9962 -121.5220 277° West 409 471 16,200 -480 Descending FlightAware ADS-B
04:28PM 48.0022 -121.5906 277° West 405 466 16,000 -420 Descending FlightAware ADS-B (CYWH)
04:28PM 48.0036 -121.6060 277° West 406 467 16,000 -1,440 Level FlightAware ADS-B
04:28PM 48.0091 -121.6753 276° West 403 464 15,300 -1,800 Descending FlightAware ADS-B (CYWH)
04:28PM 48.0100 -121.6900 276° West 403 464 15,100 -2,220 Descending FlightAware ADS-B
04:29PM 48.0141 -121.7554 275° West 402 463 14,200 -2,340 Descending FlightAware ADS-B (CYWH)
04:29PM 48.0153 -121.7730 276° West 401 461 13,900 -3,000 Descending FlightAware ADS-B
04:29PM 48.0198 -121.8367 276° West 400 460 12,700 -3,000 Descending FlightAware ADS-B (CYWH)
04:29PM 48.0212 -121.8560 276° West 400 460 12,400 -2,280 Descending FlightAware ADS-B
04:30PM 48.0265 -121.9263 277° West 386 444 11,500 -1,800 Descending FlightAware ADS-B (CYVR)
04:30PM 48.0274 -121.9370 277° West 384 442 11,500 -480 Level FlightAware ADS-B
04:30PM 48.0317 -121.9930 276° West 359 413 11,300 -540 Descending FlightAware ADS-B
04:30PM 48.0334 -122.0226 274° West 346 398 11,200 -840 Descending FlightAware ADS-B (CYWH)
04:31PM 48.0352 -122.0640 273° West 336 387 10,900 -960 Descending FlightAware ADS-B
04:31PM 48.0363 -122.0942 273° West 326 375 10,700 -840 Descending FlightAware ADS-B (CYVR)
04:31PM 48.0377 -122.1310 273° West 316 364 10,500 -660 Descending FlightAware ADS-B
04:32PM 48.0392 -122.1712 273° West 300 345 10,300 -420 Descending FlightAware ADS-B (CYWH)
04:32PM 48.0400 -122.1940 273° West 292 336 10,300  Level FlightAware ADS-B
04:32PM 48.0413 -122.2357 273° West 286 329 10,300  Level FlightAware ADS-B (CYWH)
04:32PM 48.0420 -122.2550 273° West 287 330 10,300  Level FlightAware ADS-B
04:33PM 48.0434 -122.3023 273° West 287 330 10,300  Level FlightAware ADS-B (CYVR)
04:33PM 48.0441 -122.3230 273° West 285 328 10,300  Level FlightAware ADS-B
04:33PM 48.0454 -122.3627 273° West 287 330 10,300  Level FlightAware ADS-B (CYVR)
04:33PM 48.0460 -122.3820 273° West 286 329 10,300  Level FlightAware ADS-B
04:34PM 48.0476 -122.4338 273° West 288 331 10,300  Level FlightAware ADS-B (CYWH)
04:34PM 48.0479 -122.4430 273° West 287 330 10,300  Level FlightAware ADS-B
04:34PM 48.0493 -122.4893 273° West 288 331 10,300  Level FlightAware ADS-B (CYVR)
04:34PM 48.0500 -122.5120 273° West 289 333 10,300  Level FlightAware ADS-B
04:35PM 48.0519 -122.5730 273° West 288 331 10,300  Level FlightAware ADS-B
04:35PM 48.0519 -122.5727 273° West 288 331 10,300  Level FlightAware ADS-B (CYWH)
04:35PM 48.0539 -122.6250 273° West 287 330 10,300  Level FlightAware ADS-B
04:35PM 48.0541 -122.6329 273° West 287 330 10,300  Level FlightAware ADS-B (CYWH)
04:36PM 48.0557 -122.6850 273° West 288 331 10,300  Level FlightAware ADS-B
04:36PM 48.0561 -122.6972 273° West 288 331 10,300  Level FlightAware ADS-B (CYVR)
04:36PM 48.0577 -122.7450 273° West 289 333 10,300  Level FlightAware ADS-B
04:37PM 48.0581 -122.7588 273° West 290 334 10,300  Level FlightAware ADS-B (CYVR)
04:42PM 48.0813 -123.4530 273° West 296 341 10,300  Level FlightAware ADS-B (CYWH)
04:43PM 48.0833 -123.5152 273° West 296 341 10,300  Level FlightAware ADS-B (CYWH)
04:43PM 48.0850 -123.5772 273° West 295 339 10,300  Level FlightAware ADS-B (CYVR)
04:44PM 48.0919 -123.6346 291° West 283 326 10,300  Level FlightAware ADS-B (CYWH)
04:44PM 48.1004 -123.6572 305° West 273 314 10,300  Level FlightAware ADS-B (CYVR)
04:44PM 48.1054 -123.6656 319° Northwest 267 307 10,300  Level FlightAware ADS-B (CYWH)
04:44PM 48.1154 -123.6746 339° North 261 300 10,300  Level FlightAware ADS-B (CYWH)
04:44PM 48.1271 -123.6773 North 257 296 10,300  Level FlightAware ADS-B (CYWH)
04:45PM 48.1393 -123.6722 27° Northeast 257 296 10,300  Level FlightAware ADS-B (CYWH)
04:45PM 48.1487 -123.6612 50° Northeast 263 303 10,300  Level FlightAware ADS-B (CYWH)
04:45PM 48.1528 -123.6491 75° East 269 310 10,300  Level FlightAware ADS-B (CYWH)
04:45PM 48.1549 -123.6276 94° East 268 308 10,300  Level FlightAware ADS-B (CYWH)
04:45PM 48.1522 -123.6065 105° East 267 307 10,300  Level FlightAware ADS-B (CYWH)
04:46PM 48.1406 -123.5531 108° East 262 302 10,300  Level FlightAware ADS-B (CYVR)
04:46PM 48.1289 -123.4984 107° East 258 297 10,300  Level FlightAware ADS-B (CYVR)
04:47PM 48.1160 -123.4378 108° East 260 299 10,300  Level FlightAware ADS-B (CYWH)
04:47PM 48.1069 -123.3942 107° East 262 302 10,300  Level FlightAware ADS-B (CYWH)
04:48PM 48.0949 -123.3360 107° East 262 302 10,300  Level FlightAware ADS-B
04:48PM 48.0941 -123.3329 107° East 262 302 10,300  Level FlightAware ADS-B (CYWH)
04:48PM 48.0839 -123.2840 107° East 266 306 10,300  Level FlightAware ADS-B
04:48PM 48.0832 -123.2808 107° East 265 305 10,300  Level FlightAware ADS-B (CYWH)
04:49PM 48.0817 -123.2720 103° East 263 303 10,300  Level FlightAware ADS-B
04:49PM 48.0809 -123.2642 95° East 258 297 10,300  Level FlightAware ADS-B (CYWH)
04:49PM 48.0808 -123.2630 95° East 258 297 10,300  Level FlightAware ADS-B
04:49PM 48.0810 -123.2540 85° East 253 291 10,300  Level FlightAware ADS-B
04:49PM 48.0826 -123.2450 71° East 248 285 10,300  Level FlightAware ADS-B (CYWH)
04:49PM 48.0828 -123.2440 71° East 248 285 10,300  Level FlightAware ADS-B
04:49PM 48.0845 -123.2390 61° Northeast 244 281 10,300  Level FlightAware ADS-B
04:49PM 48.0867 -123.2340 54° Northeast 242 278 10,300  Level FlightAware ADS-B
04:49PM 48.0878 -123.2321 46° Northeast 241 277 10,300  Level FlightAware ADS-B (CYWH)
04:49PM 48.0905 -123.2280 43° Northeast 240 276 10,300  Level FlightAware ADS-B
04:49PM 48.0947 -123.2240 31° Northeast 238 274 10,300  Level FlightAware ADS-B
04:49PM 48.0992 -123.2210 21° North 236 272 10,300  Level FlightAware ADS-B
04:49PM 48.0996 -123.2212 15° North 237 273 10,300  Level FlightAware ADS-B (CYVR)
04:49PM 48.1033 -123.2200 10° North 237 273 10,300  Level FlightAware ADS-B
04:49PM 48.1075 -123.2200 North 237 273 10,300  Level FlightAware ADS-B
04:49PM 48.1081 -123.2202 355° North 238 274 10,300  Level FlightAware ADS-B (CYWH)
04:49PM 48.1112 -123.2210 353° North 238 274 10,300  Level FlightAware ADS-B
04:49PM 48.1144 -123.2220 342° North 240 276 10,300  Level FlightAware ADS-B
04:49PM 48.1192 -123.2260 332° Northwest 242 278 10,300  Level FlightAware ADS-B
04:50PM 48.1186 -123.2251 330° Northwest 243 280 10,300  Level FlightAware ADS-B (CYWH)
04:50PM 48.1228 -123.2300 322° Northwest 244 281 10,300  Level FlightAware ADS-B
04:50PM 48.1259 -123.2350 310° West 248 285 10,300  Level FlightAware ADS-B
04:50PM 48.1277 -123.2384 305° West 249 287 10,300  Level FlightAware ADS-B (CYWH)
04:50PM 48.1301 -123.2460 293° West 254 292 10,300  Level FlightAware ADS-B
04:50PM 48.1316 -123.2540 284° West 257 296 10,300  Level FlightAware ADS-B
04:50PM 48.1314 -123.2529 283° West 258 297 10,300  Level FlightAware ADS-B (CYWH)
04:50PM 48.1366 -123.3080 277° West 260 299 10,300  Level FlightAware ADS-B
04:51PM 48.1379 -123.3248 277° West 261 300 10,300  Level FlightAware ADS-B (CYWH)
04:51PM 48.1411 -123.3620 278° West 257 296 10,300  Level FlightAware ADS-B
04:51PM 48.1425 -123.3780 278° West 257 296 10,300  Level FlightAware ADS-B (CYWH)
04:52PM 48.1475 -123.4343 278° West 258 297 10,300  Level FlightAware ADS-B (CYVR)
04:52PM 48.1518 -123.4821 277° West 259 298 10,300  Level FlightAware ADS-B (CYVR)
04:53PM 48.1569 -123.5417 278° West 258 297 10,300  Level FlightAware ADS-B (CYVR)
04:53PM 48.1617 -123.5953 277° West 258 297 10,300  Level FlightAware ADS-B (CYWH)
04:54PM 48.1673 -123.6625 277° West 257 296 10,300  Level FlightAware ADS-B (CYWH)
04:54PM 48.1716 -123.7139 277° West 257 296 10,300  Level FlightAware ADS-B (CYWH)
05:01PM 48.2668 -124.1775 100° East 259 298 10,300  Level FlightAware ADS-B (CYVR)
05:01PM 48.2615 -124.1511 111° Southeast 267 307 10,300  Level FlightAware ADS-B (CYWH)
05:01PM 48.2451 -124.0919 113° Southeast 268 308 10,300  Level FlightAware ADS-B (CYVR)
05:02PM 48.2310 -124.0433 113° Southeast 270 311 10,300  Level FlightAware ADS-B (CYVR)
05:03PM 48.2126 -123.9775 111° Southeast 282 325 10,300  Level FlightAware ADS-B (CYWH)
05:03PM 48.2019 -123.9185 102° East 282 325 10,300  Level FlightAware ADS-B (CYWH)
05:04PM 48.1928 -123.8579 103° East 279 321 10,300 540 Level FlightAware ADS-B (CYVR)
05:04PM 48.1838 -123.8002 103° East 276 318 10,900 2,040 Climbing FlightAware ADS-B (CYVR)
05:05PM 48.1739 -123.7360 103° East 298 343 12,500 2,880 Climbing FlightAware ADS-B
05:05PM 48.1734 -123.7330 103° East 303 349 12,700 2,280 Climbing FlightAware ADS-B (CYWH)
05:05PM 48.1639 -123.6710 103° East 329 379 13,700 2,160 Climbing FlightAware ADS-B
05:05PM 48.1626 -123.6629 103° East 335 386 13,800 1,560 Climbing FlightAware ADS-B (CYWH)
05:06PM 48.1528 -123.6000 103° East 369 425 14,500 1,740 Climbing FlightAware ADS-B
05:06PM 48.1524 -123.5975 103° East 372 428 14,700 2,220 Climbing FlightAware ADS-B (CYWH)
05:06PM 48.1474 -123.5663 103° East 381 438 15,400 2,040 Climbing FlightAware ADS-B (CYVR)
05:06PM 48.1406 -123.5230 103° East 382 440 15,600 780 Climbing FlightAware ADS-B
05:07PM 48.1309 -123.4616 103° East 393 452 15,800 360 Climbing FlightAware ADS-B (CYWH)
05:07PM 48.1281 -123.4440 103° East 392 451 15,800  Level FlightAware ADS-B
05:07PM 48.1183 -123.3817 103° East 388 447 15,800  Level FlightAware ADS-B (CYWH)
05:07PM 48.1156 -123.3650 103° East 388 447 15,800  Level FlightAware ADS-B
05:08PM 48.1068 -123.3095 103° East 385 443 15,800  Level FlightAware ADS-B (CYWH)
05:08PM 48.1032 -123.2870 103° East 384 442 15,800  Level FlightAware ADS-B
05:08PM 48.0961 -123.2424 103° East 384 442 15,800  Level FlightAware ADS-B (CYWH)
05:08PM 48.0909 -123.2090 103° East 384 442 15,800  Level FlightAware ADS-B
05:09PM 48.0820 -123.1540 104° East 386 444 15,800  Level FlightAware ADS-B (CYWH)
05:09PM 48.0784 -123.1310 103° East 385 443 15,800  Level FlightAware ADS-B
05:09PM 48.0705 -123.0821 104° East 386 444 15,800  Level FlightAware ADS-B (CYWH)
05:09PM 48.0666 -123.0580 103° East 387 445 15,800  Level FlightAware ADS-B
05:10PM 48.0538 -122.9790 104° East 388 447 15,800  Level FlightAware ADS-B
05:10PM 48.0525 -122.9706 104° East 389 448 15,800  Level FlightAware ADS-B (CYWH)
05:10PM 48.0413 -122.9020 104° East 376 433 15,800  Level FlightAware ADS-B
05:10PM 48.0417 -122.9044 107° East 373 429 15,800  Level FlightAware ADS-B (CYWH)
05:10PM 48.0362 -122.8800 112° Southeast 371 427 15,800 600 Level FlightAware ADS-B
05:10PM 48.0371 -122.8829 118° Southeast 370 426 15,900 480 Climbing FlightAware ADS-B (CYWH)
05:10PM 48.0256 -122.8520 125° Southeast 373 429 15,900 -600 Level FlightAware ADS-B
05:11PM 48.0231 -122.8471 127° Southeast 377 434 15,800 -1,200 Descending FlightAware ADS-B (CYWH)
05:11PM 48.0199 -122.8410 129° Southeast 382 440 15,800 -720 Level FlightAware ADS-B
05:11PM 48.0125 -122.8290 135° Southeast 392 451 15,700 -1,380 Descending FlightAware ADS-B
05:11PM 48.0109 -122.8270 138° Southeast 396 456 15,600 -1,500 Descending FlightAware ADS-B (CYWH)
05:11PM 48.0059 -122.8210 141° Southeast 399 459 15,600 -1,020 Level FlightAware ADS-B
05:11PM 47.9999 -122.8140 145° Southeast 402 463 15,500 -1,020 Descending FlightAware ADS-B
05:11PM 47.9779 -122.7939 149° Southeast 405 466 15,300 -780 Descending FlightAware ADS-B (CYWH)
05:11PM 47.9510 -122.7700 149° Southeast 405 466 15,100 -840 Descending FlightAware ADS-B
05:12PM 47.9654 -122.7827 149° Southeast 404 465 14,900 -1,020 Descending FlightAware ADS-B (CYWH)
05:12PM 47.9024 -122.7260 149° Southeast 400 460 14,600 -1,020 Descending FlightAware ADS-B
05:12PM 47.8828 -122.7088 149° Southeast 397 457 14,400 -1,020 Descending FlightAware ADS-B (CYWH)
05:12PM 47.8552 -122.6840 149° Southeast 396 456 14,100 -1,200 Descending FlightAware ADS-B
05:13PM 47.8768 -122.7034 149° Southeast 393 452 13,800 -1,800 Descending FlightAware ADS-B (CYWH)
05:13PM 47.8082 -122.6420 149° Southeast 391 450 13,200 -2,220 Descending FlightAware ADS-B
05:13PM 47.7876 -122.6232 149° Southeast 390 449 12,700 -2,040 Descending FlightAware ADS-B (CYWH)
05:13PM 47.7621 -122.6000 149° Southeast 385 443 12,200 -1,920 Descending FlightAware ADS-B
05:14PM 47.7121 -122.5560 149° Southeast 375 432 11,100 -1,920 Descending FlightAware ADS-B
05:14PM 47.6679 -122.5160 149° Southeast 366 421 10,200 -1,620 Descending FlightAware ADS-B
05:15PM 47.6448 -122.4950 149° Southeast 364 419 9,900 -1,200 Descending FlightAware ADS-B
05:15PM 47.6399 -122.4909 149° Southeast 363 418 9,800 -420 Descending FlightAware ADS-B (CYVR)
05:15PM 47.6224 -122.4750 149° Southeast 349 402 9,800  Level FlightAware ADS-B
05:15PM 47.6365 -122.4879 149° Southeast 339 390 9,800  Level FlightAware ADS-B (CYVR)
05:15PM 47.6077 -122.4630 152° Southeast 335 386 9,800  Level FlightAware ADS-B
05:15PM 47.6028 -122.4590 157° South 332 382 9,800  Level FlightAware ADS-B
05:15PM 47.5984 -122.4570 162° South 329 379 9,800  Level FlightAware ADS-B
05:15PM 47.5923 -122.4550 168° South 326 375 9,800  Level FlightAware ADS-B
05:15PM 47.5872 -122.4540 172° South 323 372 9,800  Level FlightAware ADS-B
05:15PM 47.5732 -122.4520 176° South 316 364 9,800 -720 Level FlightAware ADS-B
05:16PM 47.5515 -122.4500 177° South 310 357 9,500 -1,260 Descending FlightAware ADS-B
05:16PM 47.5387 -122.4493 178° South 308 354 9,300 -1,200 Descending FlightAware ADS-B (CYVR)
05:16PM 47.5293 -122.4490 178° South 307 353 9,200 -1,500 Descending FlightAware ADS-B
05:16PM 47.5106 -122.4480 177° South 306 352 8,800 -1,500 Descending FlightAware ADS-B
05:16PM 47.5064 -122.4470 174° South 303 349 8,800 -1,020 Level FlightAware ADS-B
05:16PM 47.5023 -122.4460 170° South 301 346 8,700 -900 Descending FlightAware ADS-B
05:16PM 47.4979 -122.4450 166° South 298 343 8,700  Level FlightAware ADS-B
05:16PM 47.4964 -122.4439 166° South 298 343 8,700  Level FlightAware ADS-B (CYVR)
05:16PM 47.4938 -122.4430 161° South 295 339 8,700 -1,020 Level FlightAware ADS-B
05:17PM 47.4880 -122.4390 156° South 290 334 8,600 -1,200 Descending FlightAware ADS-B
05:17PM 47.4751 -122.4290 151° Southeast 282 325 8,400 -1,800 Descending FlightAware ADS-B
05:17PM 47.4579 -122.4150 150° Southeast 279 321 7,800 -2,340 Descending FlightAware ADS-B
05:17PM 47.4404 -122.4000 150° Southeast 273 314 7,200 -2,040 Descending FlightAware ADS-B
05:17PM 47.4243 -122.3870 150° Southeast 262 302 6,800 -1,380 Descending FlightAware ADS-B
05:18PM 47.4082 -122.3730 150° Southeast 257 296 6,500 -960 Descending FlightAware ADS-B
05:18PM 47.3974 -122.3640 149° Southeast 252 290 6,400 -480 Descending FlightAware ADS-B
05:18PM 47.3945 -122.3610 147° Southeast 249 287 6,400 -900 Level FlightAware ADS-B
05:18PM 47.3910 -122.3580 143° Southeast 246 283 6,300 -2,280 Descending FlightAware ADS-B
05:18PM 47.3873 -122.3530 139° Southeast 243 280 6,100 -2,040 Descending FlightAware ADS-B
05:18PM 47.3836 -122.3480 136° Southeast 241 277 6,000 -1,620 Descending FlightAware ADS-B
05:18PM 47.3758 -122.3360 133° Southeast 234 269 5,700 -1,320 Descending FlightAware ADS-B
05:19PM 47.3668 -122.3210 132° Southeast 217 250 5,500 -1,140 Descending FlightAware ADS-B
05:19PM 47.3578 -122.3060 131° Southeast 201 231 5,200 -1,500 Descending FlightAware ADS-B
05:19PM 47.3490 -122.2910 131° Southeast 184 212 4,800 -1,440 Descending FlightAware ADS-B
05:19PM 47.3408 -122.2780 131° Southeast 176 203 4,500 -1,200 Descending FlightAware ADS-B
05:19PM 47.3350 -122.2680 131° Southeast 173 199 4,300 -1,440 Descending FlightAware ADS-B
05:20PM 47.3318 -122.2620 130° Southeast 172 198 4,100 -1,800 Descending FlightAware ADS-B
05:20PM 47.3298 -122.2590 127° Southeast 173 199 4,000 -900 Descending FlightAware ADS-B
05:20PM 47.3285 -122.2560 122° Southeast 172 198 4,000 -900 Level FlightAware ADS-B
05:20PM 47.3273 -122.2520 111° Southeast 170 196 3,900 -1,500 Descending FlightAware ADS-B
05:20PM 47.3266 -122.2480 102° East 170 196 3,800 -1,740 Descending FlightAware ADS-B
05:20PM 47.3265 -122.2440 92° East 169 194 3,700 -900 Descending FlightAware ADS-B
05:20PM 47.3269 -122.2400 79° East 167 192 3,700 -900 Level FlightAware ADS-B
05:20PM 47.3278 -122.2360 69° East 165 190 3,600 -780 Descending FlightAware ADS-B
05:20PM 47.3292 -122.2320 60° Northeast 162 186 3,600 -780 Level FlightAware ADS-B
05:20PM 47.3309 -122.2290 49° Northeast 158 182 3,500 -900 Descending FlightAware ADS-B
05:20PM 47.3326 -122.2260 44° Northeast 158 182 3,500 -900 Level FlightAware ADS-B
05:20PM 47.3343 -122.2240 40° Northeast 158 182 3,400 -1,020 Descending FlightAware ADS-B
05:20PM 47.3366 -122.2210 36° Northeast 160 184 3,400 -600 Level FlightAware ADS-B
05:20PM 47.3409 -122.2170 32° Northeast 160 184 3,300 -840 Descending FlightAware ADS-B
05:21PM 47.3503 -122.2090 31° Northeast 159 183 3,100 -900 Descending FlightAware ADS-B
05:21PM 47.3537 -122.2060 28° Northeast 159 183 3,000 -1,380 Descending FlightAware ADS-B
05:21PM 47.3556 -122.2050 23° Northeast 159 183 2,900 -1,020 Descending FlightAware ADS-B
05:21PM 47.3581 -122.2040 17° North 158 182 2,900  Level FlightAware ADS-B
05:21PM 47.3605 -122.2030 14° North 158 182 2,900 -780 Level FlightAware ADS-B
05:21PM 47.3638 -122.2010 11° North 159 183 2,800 -540 Descending FlightAware ADS-B
05:21PM 47.3692 -122.2000 North 159 183 2,800  Level FlightAware ADS-B
05:21PM 47.3749 -122.1990 North 160 184 2,800  Level FlightAware ADS-B
05:21PM 47.3780 -122.1980 North 161 185 2,800  Level FlightAware ADS-B
05:21PM 47.3810 -122.1980 North 160 184 2,800  Level FlightAware ADS-B
05:21PM 47.3845 -122.1980 360° North 160 184 2,800  Level FlightAware ADS-B
05:22PM 47.3898 -122.1980 358° North 163 188 2,800  Level FlightAware ADS-B
05:22PM 47.3928 -122.1990 355° North 164 189 2,800  Level FlightAware ADS-B
05:22PM 47.3952 -122.1990 353° North 163 188 2,800 -780 Level FlightAware ADS-B
05:22PM 47.3987 -122.2000 349° North 162 186 2,700 -720 Descending FlightAware ADS-B
05:22PM 47.4015 -122.2010 346° North 161 185 2,700 -600 Level FlightAware ADS-B
05:22PM 47.4068 -122.2030 344° North 159 183 2,600 -480 Descending FlightAware ADS-B
05:22PM 47.4117 -122.2050 342° North 161 185 2,600 -540 Level FlightAware ADS-B
05:22PM 47.4152 -122.2070 340° North 160 184 2,500 -1,380 Descending FlightAware ADS-B
05:22PM 47.4176 -122.2090 337° Northwest 160 184 2,400 -1,500 Descending FlightAware ADS-B
05:22PM 47.4203 -122.2100 335° Northwest 160 184 2,300 -1,200 Descending FlightAware ADS-B
05:22PM 47.4246 -122.2130 333° Northwest 161 185 2,200 -960 Descending FlightAware ADS-B
05:23PM 47.4329 -122.2200 330° Northwest 163 188 2,000 -1,020 Descending FlightAware ADS-B
05:23PM 47.4400 -122.2260 330° Northwest 164 189 1,800 -1,020 Descending FlightAware ADS-B
05:23PM 47.4487 -122.2340 331° Northwest 159 183 1,600 -1,140 Descending FlightAware ADS-B
05:23PM 47.4575 -122.2410 330° Northwest 151 174 1,300 -960 Descending FlightAware ADS-B
05:23PM 47.4640 -122.2470 330° Northwest 146 168 1,200 -660 Descending FlightAware ADS-B
05:24PM 47.4684 -122.2500 330° Northwest 144 166 1,100 -780 Descending FlightAware ADS-B
05:24PM 47.4776 -122.2580 331° Northwest 145 167 900 -660 Descending FlightAware ADS-B
05:25PM 47.5092 -122.2861 90° East 138 159 300 9,840 Descending Seattle Center
05:25PM 47.5217 -122.2953 334° Northwest 140 161 16,000 -180 Climbing Seattle Center
05:26PM 47.5531 -122.3217 330° Northwest 139 160 100 -15,660 Descending Seattle Center
05:28PM 47.5300 -122.3020 132° Southeast  Level Estimated
05:30PM 47.5300 -122.3020 90° East  Level Estimated
05:35PM 47.5300 -122.3020 90° East  Level Estimated
05:36PM 47.5300 -122.3020 132° Southeast  Level Estimated
05:37PM 47.5300 -122.3020 179° South  Level Estimated
05:38PM 47.5300 -122.3020 90° East  Level Estimated
05:39PM 47.5300 -122.3020 90° East  Level Estimated
05:40PM 47.5300 -122.3020 102° East  Level Estimated
05:41PM 47.5300 -122.3020 122° Southeast  Level Estimated
05:42PM 47.5300 -122.3020 90° East  Level Estimated
05:43PM 47.5300 -122.3020 110° East  Level Estimated
05:44PM 47.5300 -122.3020 132° Southeast  Level Estimated
05:45PM 47.5300 -122.3020 179° South  Level Estimated
05:46PM 47.5300 -122.3020 90° East  Level Estimated
05:47PM 47.5300 -122.3020 90° East  Level Estimated
05:48PM 47.5300 -122.3020 102° East  Level Estimated
05:49PM 47.5300 -122.3020 122° Southeast  Level Estimated
05:50PM 47.5300 -122.3020 90° East  Level Estimated
05:51PM 47.5300 -122.3020 110° East  Level Estimated
05:52PM 47.5300 -122.3020 132° Southeast  Level Estimated
05:53PM 47.5300 -122.3020 179° South  Level Estimated
05:54PM 47.5300 -122.3020 90° East  Level Estimated